Аэропорт: Байкал. Улан-Удэ

ICAO: UIUU

METAR:
2019-12-12 12:00:00
UIUU 121200Z 25003MPS 9999 -SHSN BKN028CB M03/M05 Q1018 R26/491040 NOSIG RMK QFE719/0959
METAR:
2019-12-12 11:00:00
TAF UIUU 121100Z 1212/1312 31005MPS 5000 -SHSN BKN030CB TEMPO 1212/1305 25003MPS 2500 -SHSN FU